createdAt,value
2017-09-30T00:00:17.948Z,101351.88
2017-09-30T00:02:20.380Z,101358.77
2017-09-30T00:04:22.936Z,101349.13
2017-09-30T00:06:25.373Z,101358.35
2017-09-30T00:08:27.829Z,101354.88
2017-09-30T00:10:30.433Z,101359.95
2017-09-30T00:12:32.875Z,101362.75
2017-09-30T00:14:35.315Z,101369.34
2017-09-30T00:16:37.772Z,101362.41
2017-09-30T00:18:40.215Z,101362.32
2017-09-30T00:20:42.649Z,101359.53
2017-09-30T00:22:45.109Z,101369.55
2017-09-30T00:24:47.869Z,101370.73
2017-09-30T00:26:50.312Z,101371.83
2017-09-30T00:28:52.870Z,101373.43
2017-09-30T00:30:55.341Z,101383.91
2017-09-30T00:32:57.782Z,101386.28
2017-09-30T00:35:00.252Z,101386.14
2017-09-30T00:37:02.688Z,101394.63
2017-09-30T00:39:05.127Z,101395.39
2017-09-30T00:41:07.589Z,101398.77
2017-09-30T00:43:10.070Z,101397.70
2017-09-30T00:45:12.507Z,101409.54
2017-09-30T00:47:15.004Z,101404.00
2017-09-30T00:49:17.475Z,101411.47
2017-09-30T00:51:19.936Z,101407.91
2017-09-30T00:53:22.396Z,101397.33
2017-09-30T00:55:24.827Z,101401.64
2017-09-30T00:57:27.271Z,101391.33
2017-09-30T00:59:29.824Z,101398.39
2017-09-30T01:01:32.296Z,101405.75
2017-09-30T01:03:34.773Z,101413.35
2017-09-30T01:05:37.345Z,101404.55
2017-09-30T01:07:39.804Z,101403.05
2017-09-30T01:09:42.252Z,101408.93
2017-09-30T01:11:44.958Z,101411.36
2017-09-30T01:13:47.397Z,101411.30
2017-09-30T01:15:49.845Z,101415.67
2017-09-30T01:17:52.300Z,101419.55
2017-09-30T01:19:54.749Z,101422.54
2017-09-30T01:21:57.185Z,101422.91
2017-09-30T01:23:59.674Z,101430.31
2017-09-30T01:26:02.117Z,101436.96
2017-09-30T01:28:04.552Z,101423.98
2017-09-30T01:30:07.100Z,101422.01
2017-09-30T01:32:09.540Z,101414.99
2017-09-30T01:34:11.972Z,101411.27
2017-09-30T01:36:14.436Z,101422.65
2017-09-30T01:38:16.873Z,101441.38
2017-09-30T01:40:20.365Z,101452.48
2017-09-30T01:42:22.842Z,101433.05
2017-09-30T01:44:25.399Z,101435.78
2017-09-30T01:46:27.868Z,101438.73
2017-09-30T01:48:30.334Z,101446.48
2017-09-30T01:50:32.777Z,101450.26
2017-09-30T01:52:35.216Z,101463.41
2017-09-30T01:54:37.679Z,101455.97
2017-09-30T01:56:40.116Z,101439.64
2017-09-30T01:58:42.543Z,101435.22
2017-09-30T02:00:45.057Z,101431.55
2017-09-30T02:02:47.507Z,101425.47
2017-09-30T02:04:49.956Z,101420.14
2017-09-30T02:06:52.575Z,101409.13
2017-09-30T02:08:55.025Z,101409.86
2017-09-30T02:10:57.464Z,101400.17
2017-09-30T02:13:00.168Z,101395.53
2017-09-30T02:15:02.613Z,101392.30
2017-09-30T02:17:05.047Z,101384.18
2017-09-30T02:19:07.567Z,101393.11
2017-09-30T02:21:10.013Z,101394.80
2017-09-30T02:23:12.532Z,101395.05
2017-09-30T02:25:14.980Z,101392.66
2017-09-30T02:27:17.416Z,101403.94
2017-09-30T02:29:19.847Z,101407.07
2017-09-30T02:31:22.304Z,101405.58
2017-09-30T02:33:24.784Z,101405.75
2017-09-30T02:35:27.224Z,101393.36
2017-09-30T02:37:29.691Z,101389.67
2017-09-30T02:39:32.396Z,101381.53
2017-09-30T02:41:34.830Z,101368.14
2017-09-30T02:43:37.331Z,101362.87
2017-09-30T02:45:39.765Z,101359.29
2017-09-30T02:47:42.188Z,101353.83
2017-09-30T02:49:44.656Z,101351.16
2017-09-30T02:51:47.093Z,101352.30
2017-09-30T02:53:49.529Z,101351.45
2017-09-30T02:55:52.003Z,101336.71
2017-09-30T02:57:54.445Z,101332.48
2017-09-30T02:59:56.891Z,101322.77
2017-09-30T03:01:59.426Z,101318.07
2017-09-30T03:04:01.860Z,101308.09
2017-09-30T03:06:04.293Z,101305.02
2017-09-30T03:08:06.751Z,101304.52
2017-09-30T03:10:09.184Z,101295.55
2017-09-30T03:12:11.622Z,101291.76
2017-09-30T03:14:14.537Z,101284.31
2017-09-30T03:16:16.979Z,101284.63
2017-09-30T03:18:19.430Z,101289.95
2017-09-30T03:20:21.898Z,101275.02
2017-09-30T03:22:24.340Z,101272.56
2017-09-30T03:24:26.772Z,101265.34
2017-09-30T03:26:29.237Z,101282.41
2017-09-30T03:28:31.685Z,101265.72
2017-09-30T03:30:34.117Z,101275.61
2017-09-30T03:32:36.585Z,101280.72
2017-09-30T03:34:39.040Z,101282.06
2017-09-30T03:36:41.572Z,101271.03
2017-09-30T03:38:44.080Z,101267.40
2017-09-30T03:40:46.520Z,101258.31
2017-09-30T03:42:48.953Z,101254.09
2017-09-30T03:44:51.412Z,101252.56
2017-09-30T03:46:53.850Z,101249.06
2017-09-30T03:48:56.372Z,101241.84
2017-09-30T03:50:58.827Z,101237.33
2017-09-30T03:53:01.329Z,101240.97
2017-09-30T03:55:03.795Z,101244.52
2017-09-30T03:57:06.257Z,101252.20
2017-09-30T03:59:08.694Z,101250.76
2017-09-30T04:01:11.146Z,101250.34
2017-09-30T04:03:13.640Z,101259.38
2017-09-30T04:05:16.084Z,101263.85
2017-09-30T04:07:18.511Z,101263.94
2017-09-30T04:09:21.089Z,101263.34
2017-09-30T04:11:23.544Z,101267.67
2017-09-30T04:13:25.981Z,101275.30
2017-09-30T04:15:28.672Z,101276.32
2017-09-30T04:17:31.120Z,101272.84
2017-09-30T04:19:33.567Z,101270.98
2017-09-30T04:21:36.104Z,101264.40
2017-09-30T04:23:38.539Z,101269.84
2017-09-30T04:25:40.982Z,101271.11
2017-09-30T04:27:43.512Z,101271.95
2017-09-30T04:29:45.992Z,101267.56
2017-09-30T04:31:48.441Z,101275.25
2017-09-30T04:33:50.903Z,101278.84
2017-09-30T04:35:53.404Z,101282.48
2017-09-30T04:37:55.836Z,101279.64
2017-09-30T04:39:58.345Z,101276.56
2017-09-30T04:42:00.788Z,101270.60
2017-09-30T04:44:03.228Z,101270.89
2017-09-30T04:46:05.688Z,101258.61
2017-09-30T04:48:08.120Z,101250.98
2017-09-30T04:50:10.560Z,101249.86
2017-09-30T04:52:13.065Z,101248.75
2017-09-30T04:54:15.509Z,101259.88
2017-09-30T04:56:17.939Z,101259.70
2017-09-30T04:58:20.410Z,101260.38
2017-09-30T05:00:22.844Z,101257.08
2017-09-30T05:02:25.315Z,101247.28
2017-09-30T05:04:27.973Z,101254.47
2017-09-30T05:06:30.458Z,101259.66
2017-09-30T05:08:32.989Z,101261.42
2017-09-30T05:10:35.449Z,101263.08
2017-09-30T05:12:37.888Z,101262.22
2017-09-30T05:14:40.327Z,101270.94
2017-09-30T05:16:43.095Z,101273.25
2017-09-30T05:18:45.537Z,101271.61
2017-09-30T05:20:47.976Z,101277.02
2017-09-30T05:22:50.436Z,101278.38
2017-09-30T05:24:52.909Z,101280.09
2017-09-30T05:26:55.363Z,101288.92
2017-09-30T05:28:57.880Z,101270.92
2017-09-30T05:31:00.321Z,101269.74
2017-09-30T05:33:02.769Z,101271.98
2017-09-30T05:35:05.249Z,101270.05
2017-09-30T05:37:07.688Z,101272.50
2017-09-30T05:39:10.175Z,101271.73
2017-09-30T05:41:12.652Z,101268.32
2017-09-30T05:43:15.086Z,101263.34
2017-09-30T05:45:17.530Z,101264.64
2017-09-30T05:47:20.012Z,101268.96
2017-09-30T05:49:22.449Z,101270.31
2017-09-30T05:51:24.941Z,101272.42
2017-09-30T05:53:27.479Z,101264.02
2017-09-30T05:55:29.913Z,101263.09
2017-09-30T05:57:32.421Z,101264.48
2017-09-30T05:59:34.891Z,101265.70
2017-09-30T06:01:37.335Z,101265.91
2017-09-30T06:03:39.772Z,101261.27
2017-09-30T06:05:42.255Z,101257.88
2017-09-30T06:07:44.725Z,101262.54
2017-09-30T06:09:47.183Z,101268.23
2017-09-30T06:11:49.724Z,101270.31
2017-09-30T06:13:52.170Z,101270.43
2017-09-30T06:15:54.612Z,101271.20
2017-09-30T06:17:57.417Z,101270.05
2017-09-30T06:19:59.862Z,101279.00
2017-09-30T06:22:02.297Z,101273.35
2017-09-30T06:24:04.767Z,101266.20
2017-09-30T06:26:07.205Z,101271.45
2017-09-30T06:28:09.653Z,101272.22
2017-09-30T06:30:12.192Z,101272.84
2017-09-30T06:32:14.622Z,101283.23
2017-09-30T06:34:17.077Z,101285.47
2017-09-30T06:36:19.586Z,101281.19
2017-09-30T06:38:22.024Z,101285.33
2017-09-30T06:40:24.457Z,101280.77
2017-09-30T06:42:26.936Z,101276.52
2017-09-30T06:44:29.364Z,101281.68
2017-09-30T06:46:31.841Z,101279.23
2017-09-30T06:48:34.301Z,101284.39
2017-09-30T06:50:36.740Z,101290.52
2017-09-30T06:52:39.233Z,101291.19
2017-09-30T06:54:41.695Z,101289.38
2017-09-30T06:56:44.149Z,101285.95
2017-09-30T06:58:46.622Z,101286.08
2017-09-30T07:00:49.104Z,101278.80
2017-09-30T07:02:51.584Z,101271.83
2017-09-30T07:04:54.016Z,101267.61
2017-09-30T07:06:56.478Z,101269.12
2017-09-30T07:08:58.967Z,101264.65
2017-09-30T07:11:01.438Z,101260.50
2017-09-30T07:13:03.934Z,101263.70
2017-09-30T07:15:06.373Z,101258.52
2017-09-30T07:17:08.968Z,101261.19
2017-09-30T07:19:11.720Z,101250.64
2017-09-30T07:21:14.152Z,101255.45
2017-09-30T07:23:16.597Z,101255.23
2017-09-30T07:25:19.067Z,101253.17
2017-09-30T07:27:21.502Z,101250.37
2017-09-30T07:29:23.948Z,101251.73
2017-09-30T07:31:26.420Z,101246.41
2017-09-30T07:33:28.931Z,101243.80
2017-09-30T07:35:31.368Z,101248.48
2017-09-30T07:37:33.838Z,101247.80
2017-09-30T07:39:36.329Z,101247.08
2017-09-30T07:41:38.772Z,101245.44
2017-09-30T07:43:41.337Z,101249.16
2017-09-30T07:45:43.779Z,101245.15
2017-09-30T07:47:46.231Z,101256.48
2017-09-30T07:49:48.696Z,101244.69
2017-09-30T07:51:51.148Z,101244.44
2017-09-30T07:53:53.620Z,101245.99
2017-09-30T07:55:56.092Z,101243.84
2017-09-30T07:57:58.554Z,101243.75
2017-09-30T08:00:01.000Z,101237.67
2017-09-30T08:02:03.500Z,101241.31
2017-09-30T08:04:05.945Z,101239.70
2017-09-30T08:06:08.428Z,101241.69
2017-09-30T08:08:10.886Z,101252.71
2017-09-30T08:10:13.379Z,101249.08
2017-09-30T08:12:15.868Z,101255.97
2017-09-30T08:14:18.327Z,101256.73
2017-09-30T08:16:20.802Z,101246.46
2017-09-30T08:18:23.242Z,101251.36
2017-09-30T08:20:26.203Z,101248.03
2017-09-30T08:22:28.719Z,101249.20
2017-09-30T08:24:31.156Z,101246.50
2017-09-30T08:26:33.618Z,101242.93
2017-09-30T08:28:36.060Z,101247.08
2017-09-30T08:30:38.500Z,101245.56
2017-09-30T08:32:40.953Z,101238.30
2017-09-30T08:34:43.398Z,101231.83
2017-09-30T08:36:45.866Z,101223.01
2017-09-30T08:38:48.442Z,101225.67
2017-09-30T08:40:50.908Z,101211.86
2017-09-30T08:42:53.346Z,101207.94
2017-09-30T08:44:55.821Z,101211.14
2017-09-30T08:46:58.372Z,101210.59
2017-09-30T08:49:00.945Z,101203.37
2017-09-30T08:51:03.402Z,101203.37
2017-09-30T08:53:05.859Z,101192.89
2017-09-30T08:55:08.332Z,101192.08
2017-09-30T08:57:10.818Z,101194.78
2017-09-30T08:59:13.266Z,101199.94
2017-09-30T09:01:15.742Z,101197.03
2017-09-30T09:03:18.208Z,101190.35
2017-09-30T09:05:20.672Z,101186.72
2017-09-30T09:07:23.168Z,101179.91
2017-09-30T09:09:25.621Z,101178.73
2017-09-30T09:11:28.112Z,101180.73
2017-09-30T09:13:30.557Z,101180.97
2017-09-30T09:15:33.012Z,101181.35
2017-09-30T09:17:35.480Z,101179.29
2017-09-30T09:19:37.997Z,101183.77
2017-09-30T09:21:40.673Z,101183.39
2017-09-30T09:23:43.124Z,101181.35
2017-09-30T09:25:45.603Z,101185.83
2017-09-30T09:27:48.064Z,101185.33
2017-09-30T09:29:50.609Z,101188.70
2017-09-30T09:31:53.056Z,101188.28
2017-09-30T09:33:55.517Z,101186.38
2017-09-30T09:35:57.968Z,101191.23
2017-09-30T09:38:00.441Z,101189.08
2017-09-30T09:40:02.920Z,101187.48
2017-09-30T09:42:05.367Z,101189.72
2017-09-30T09:44:07.827Z,101186.67
2017-09-30T09:46:10.302Z,101184.78
2017-09-30T09:48:12.787Z,101189.64
2017-09-30T09:50:15.249Z,101190.86
2017-09-30T09:52:17.744Z,101197.06
2017-09-30T09:54:20.200Z,101192.58
2017-09-30T09:56:22.675Z,101184.14
2017-09-30T09:58:25.136Z,101198.79
2017-09-30T10:00:27.594Z,101209.60
2017-09-30T10:02:30.071Z,101216.40
2017-09-30T10:04:32.632Z,101228.34
2017-09-30T10:06:35.186Z,101231.22
2017-09-30T10:08:37.625Z,101225.20
2017-09-30T10:10:40.162Z,101232.67
2017-09-30T10:12:42.591Z,101227.34
2017-09-30T10:14:45.033Z,101217.23
2017-09-30T10:16:47.572Z,101216.37
2017-09-30T10:18:50.008Z,101212.01
2017-09-30T10:20:52.479Z,101218.20
2017-09-30T10:22:55.284Z,101220.63
2017-09-30T10:24:57.769Z,101227.67
2017-09-30T10:27:00.204Z,101232.92
2017-09-30T10:29:02.713Z,101237.56
2017-09-30T10:31:05.149Z,101241.48
2017-09-30T10:33:07.595Z,101245.98
2017-09-30T10:35:10.102Z,101248.56
2017-09-30T10:37:12.540Z,101248.31
2017-09-30T10:39:15.040Z,101251.33
2017-09-30T10:41:17.500Z,101259.73
2017-09-30T10:43:19.933Z,101256.48
2017-09-30T10:45:22.380Z,101263.19
2017-09-30T10:47:24.848Z,101262.04
2017-09-30T10:49:27.458Z,101261.48
2017-09-30T10:51:29.891Z,101264.63
2017-09-30T10:53:32.379Z,101262.24
2017-09-30T10:55:34.900Z,101265.42
2017-09-30T10:57:37.341Z,101269.30
2017-09-30T10:59:39.843Z,101266.10
2017-09-30T11:01:42.313Z,101268.47
2017-09-30T11:03:44.751Z,101266.14
2017-09-30T11:05:47.240Z,101271.14
2017-09-30T11:07:49.744Z,101271.75
2017-09-30T11:09:52.201Z,101275.86
2017-09-30T11:11:54.710Z,101270.86
2017-09-30T11:13:57.149Z,101272.85
2017-09-30T11:15:59.616Z,101273.73
2017-09-30T11:18:02.127Z,101271.67
2017-09-30T11:20:04.557Z,101272.58
2017-09-30T11:22:07.025Z,101264.20
2017-09-30T11:24:09.785Z,101259.29
2017-09-30T11:26:12.224Z,101255.73
2017-09-30T11:28:14.707Z,101258.19
2017-09-30T11:30:17.184Z,101257.27
2017-09-30T11:32:19.612Z,101262.50
2017-09-30T11:34:22.044Z,101259.38
2017-09-30T11:36:24.714Z,101260.67
2017-09-30T11:38:27.153Z,101263.14
2017-09-30T11:40:29.657Z,101266.80
2017-09-30T11:42:32.116Z,101266.97
2017-09-30T11:44:34.600Z,101271.19
2017-09-30T11:46:37.077Z,101271.60
2017-09-30T11:48:39.572Z,101267.78
2017-09-30T11:50:42.115Z,101273.22
2017-09-30T11:52:44.549Z,101271.86
2017-09-30T11:54:47.016Z,101271.37
2017-09-30T11:56:49.451Z,101272.54
2017-09-30T11:58:51.892Z,101268.33
2017-09-30T12:00:54.400Z,101266.55
2017-09-30T12:02:56.834Z,101259.28
2017-09-30T12:04:59.466Z,101256.50
2017-09-30T12:07:01.952Z,101252.69
2017-09-30T12:09:04.384Z,101257.58
2017-09-30T12:11:06.920Z,101257.48
2017-09-30T12:13:09.392Z,101257.68
2017-09-30T12:15:11.832Z,101256.97
2017-09-30T12:17:14.268Z,101258.84
2017-09-30T12:19:16.724Z,101251.11
2017-09-30T12:21:19.165Z,101249.42
2017-09-30T12:23:21.592Z,101259.76
2017-09-30T12:25:24.213Z,101260.77
2017-09-30T12:27:26.661Z,101265.89
2017-09-30T12:29:29.104Z,101268.84
2017-09-30T12:31:31.704Z,101271.63
2017-09-30T12:33:34.140Z,101273.20
2017-09-30T12:35:36.580Z,101270.23
2017-09-30T12:37:39.052Z,101264.25
2017-09-30T12:39:41.500Z,101269.19
2017-09-30T12:41:43.931Z,101272.45
2017-09-30T12:43:46.385Z,101276.70
2017-09-30T12:45:48.866Z,101275.23
2017-09-30T12:47:51.297Z,101282.69
2017-09-30T12:49:53.849Z,101284.97
2017-09-30T12:51:56.277Z,101283.67
2017-09-30T12:53:58.725Z,101285.63
2017-09-30T12:56:01.186Z,101294.42
2017-09-30T12:58:03.636Z,101299.30
2017-09-30T13:00:06.074Z,101296.39
2017-09-30T13:02:08.536Z,101301.69
2017-09-30T13:04:10.996Z,101306.50
2017-09-30T13:06:13.450Z,101302.38
2017-09-30T13:08:15.905Z,101302.65
2017-09-30T13:10:18.356Z,101306.75
2017-09-30T13:12:20.881Z,101316.75
2017-09-30T13:14:23.333Z,101316.36
2017-09-30T13:16:25.785Z,101312.72
2017-09-30T13:18:28.220Z,101321.87
2017-09-30T13:20:30.812Z,101320.07
2017-09-30T13:22:33.264Z,101322.54
2017-09-30T13:24:35.700Z,101323.73
2017-09-30T13:26:38.480Z,101327.13
2017-09-30T13:28:40.977Z,101323.69
2017-09-30T13:30:43.420Z,101332.67
2017-09-30T13:32:45.902Z,101336.57
2017-09-30T13:34:48.340Z,101341.25
2017-09-30T13:36:50.869Z,101340.84
2017-09-30T13:38:53.321Z,101344.83
2017-09-30T13:40:55.811Z,101345.77
2017-09-30T13:42:58.249Z,101342.78
2017-09-30T13:45:00.744Z,101349.56
2017-09-30T13:47:03.181Z,101359.92
2017-09-30T13:49:05.624Z,101360.23
2017-09-30T13:51:08.105Z,101361.34
2017-09-30T13:53:10.587Z,101368.55
2017-09-30T13:55:13.022Z,101369.14
2017-09-30T13:57:15.512Z,101375.73
2017-09-30T13:59:18.036Z,101372.37
2017-09-30T14:01:20.472Z,101375.53
2017-09-30T14:03:22.985Z,101370.58
2017-09-30T14:05:25.424Z,101368.98
2017-09-30T14:07:27.878Z,101373.59
2017-09-30T14:09:30.351Z,101370.34
2017-09-30T14:11:32.781Z,101371.11
2017-09-30T14:13:35.246Z,101374.30
2017-09-30T14:15:37.772Z,101371.09
2017-09-30T14:17:41.110Z,101376.82
2017-09-30T14:19:43.553Z,101382.92
2017-09-30T14:21:46.148Z,101386.01
2017-09-30T14:23:48.586Z,101386.40
2017-09-30T14:25:51.078Z,101386.25
2017-09-30T14:27:53.844Z,101380.64
2017-09-30T14:29:56.279Z,101386.01
2017-09-30T14:31:58.724Z,101393.30
2017-09-30T14:34:01.264Z,101389.55
2017-09-30T14:36:03.706Z,101396.63
2017-09-30T14:38:06.148Z,101395.80
2017-09-30T14:40:08.605Z,101397.61
2017-09-30T14:42:11.038Z,101411.72
2017-09-30T14:44:13.494Z,101420.71
2017-09-30T14:46:15.980Z,101416.47
2017-09-30T14:48:18.422Z,101415.78
2017-09-30T14:50:20.862Z,101405.23
2017-09-30T14:52:23.329Z,101408.36
2017-09-30T14:54:25.857Z,101407.02
2017-09-30T14:56:28.337Z,101412.76
2017-09-30T14:58:30.890Z,101409.83
2017-09-30T15:00:33.330Z,101412.95
2017-09-30T15:02:35.809Z,101409.14
2017-09-30T15:04:38.329Z,101412.19
2017-09-30T15:06:40.772Z,101413.52
2017-09-30T15:08:43.221Z,101406.64
2017-09-30T15:10:45.785Z,101411.27
2017-09-30T15:12:48.300Z,101411.24
2017-09-30T15:14:50.732Z,101412.31
2017-09-30T15:16:53.205Z,101418.20
2017-09-30T15:18:55.640Z,101411.55
2017-09-30T15:20:58.077Z,101407.61
2017-09-30T15:23:00.537Z,101411.34
2017-09-30T15:25:03.036Z,101409.23
2017-09-30T15:27:05.505Z,101406.87
2017-09-30T15:29:08.550Z,101413.95
2017-09-30T15:31:10.998Z,101418.58
2017-09-30T15:33:13.475Z,101420.58
2017-09-30T15:35:16.042Z,101421.70
2017-09-30T15:37:18.486Z,101426.34
2017-09-30T15:39:20.931Z,101426.39
2017-09-30T15:41:23.400Z,101427.38
2017-09-30T15:43:25.841Z,101430.15
2017-09-30T15:45:28.276Z,101438.56
2017-09-30T15:47:30.807Z,101437.70
2017-09-30T15:49:33.282Z,101439.55
2017-09-30T15:51:35.730Z,101447.05
2017-09-30T15:53:38.203Z,101445.15
2017-09-30T15:55:40.629Z,101441.18
2017-09-30T15:57:43.158Z,101451.41
2017-09-30T15:59:45.675Z,101444.95
2017-09-30T16:01:48.133Z,101440.09
2017-09-30T16:03:50.571Z,101437.70
2017-09-30T16:05:53.052Z,101442.88
2017-09-30T16:07:55.689Z,101446.30
2017-09-30T16:09:58.158Z,101448.52
2017-09-30T16:12:00.612Z,101450.78
2017-09-30T16:14:03.057Z,101455.95
2017-09-30T16:16:05.499Z,101457.30
2017-09-30T16:18:08.006Z,101447.77
2017-09-30T16:20:10.500Z,101445.31
2017-09-30T16:22:12.959Z,101450.34
2017-09-30T16:24:15.407Z,101447.30
2017-09-30T16:26:17.854Z,101452.17
2017-09-30T16:28:20.280Z,101455.56
2017-09-30T16:30:23.023Z,101451.85
2017-09-30T16:32:25.471Z,101453.27
2017-09-30T16:34:27.920Z,101457.47
2017-09-30T16:36:30.391Z,101457.97
2017-09-30T16:38:32.830Z,101461.42
2017-09-30T16:40:35.291Z,101452.38
2017-09-30T16:42:37.804Z,101463.70
2017-09-30T16:44:40.280Z,101468.13
2017-09-30T16:46:42.717Z,101472.45
2017-09-30T16:48:45.202Z,101471.60
2017-09-30T16:50:47.641Z,101470.77
2017-09-30T16:52:50.085Z,101473.97
2017-09-30T16:54:52.593Z,101477.77
2017-09-30T16:56:55.957Z,101475.00
2017-09-30T16:58:58.512Z,101480.70
2017-09-30T17:01:01.231Z,101484.34
2017-09-30T17:03:03.678Z,101485.10
2017-09-30T17:05:06.112Z,101483.26
2017-09-30T17:07:08.570Z,101479.55
2017-09-30T17:09:11.060Z,101484.88
2017-09-30T17:11:13.561Z,101481.41
2017-09-30T17:13:16.049Z,101480.72
2017-09-30T17:15:18.568Z,101486.12
2017-09-30T17:17:21.012Z,101483.25
2017-09-30T17:19:23.482Z,101488.89
2017-09-30T17:21:25.989Z,101484.13
2017-09-30T17:23:28.440Z,101487.17
2017-09-30T17:25:31.008Z,101488.32
2017-09-30T17:27:33.468Z,101489.42
2017-09-30T17:29:35.916Z,101489.36
2017-09-30T17:31:38.629Z,101493.56
2017-09-30T17:33:41.066Z,101486.23
2017-09-30T17:35:43.630Z,101487.25
2017-09-30T17:37:46.440Z,101485.97
2017-09-30T17:39:48.907Z,101483.47
2017-09-30T17:41:51.360Z,101483.28
2017-09-30T17:43:53.838Z,101482.89
2017-09-30T17:45:56.328Z,101485.05
2017-09-30T17:47:58.770Z,101485.73
2017-09-30T17:50:01.280Z,101485.89
2017-09-30T17:52:03.734Z,101491.45
2017-09-30T17:54:06.212Z,101499.16
2017-09-30T17:56:08.671Z,101503.14
2017-09-30T17:58:11.112Z,101501.25
2017-09-30T18:00:13.567Z,101503.80
2017-09-30T18:02:16.132Z,101505.06
2017-09-30T18:04:18.652Z,101513.05
2017-09-30T18:06:21.097Z,101513.40
2017-09-30T18:08:23.580Z,101514.52
2017-09-30T18:10:26.032Z,101510.98
2017-09-30T18:12:28.482Z,101514.02
2017-09-30T18:14:30.951Z,101508.70
2017-09-30T18:16:33.389Z,101511.31
2017-09-30T18:18:35.886Z,101513.48
2017-09-30T18:20:38.340Z,101509.13
2017-09-30T18:22:40.775Z,101511.41
2017-09-30T18:24:43.263Z,101514.09
2017-09-30T18:26:45.733Z,101512.48
2017-09-30T18:28:48.169Z,101519.16
2017-09-30T18:30:50.609Z,101520.27
2017-09-30T18:32:53.220Z,101522.28
2017-09-30T18:34:55.664Z,101527.60
2017-09-30T18:36:58.107Z,101519.34
2017-09-30T18:39:00.652Z,101519.73
2017-09-30T18:41:03.285Z,101520.70
2017-09-30T18:43:06.043Z,101526.59
2017-09-30T18:45:08.580Z,101527.25
2017-09-30T18:47:12.065Z,101534.34
2017-09-30T18:49:15.057Z,101536.55
2017-09-30T18:51:17.625Z,101543.61
2017-09-30T18:53:20.103Z,101540.48
2017-09-30T18:55:22.553Z,101542.83
2017-09-30T18:57:25.022Z,101542.59
2017-09-30T18:59:27.782Z,101551.05
2017-09-30T19:01:31.192Z,101553.75
2017-09-30T19:03:33.977Z,101560.86
2017-09-30T19:05:36.430Z,101559.42
2017-09-30T19:07:38.875Z,101563.41
2017-09-30T19:09:41.657Z,101560.20
2017-09-30T19:11:44.116Z,101565.61
2017-09-30T19:13:46.638Z,101566.38
2017-09-30T19:15:49.112Z,101570.97
2017-09-30T19:17:51.560Z,101566.80
2017-09-30T19:19:54.003Z,101565.18
2017-09-30T19:21:56.523Z,101576.21
2017-09-30T19:23:58.957Z,101578.09
2017-09-30T19:26:01.457Z,101573.86
2017-09-30T19:28:03.934Z,101578.33
2017-09-30T19:30:06.672Z,101580.52
2017-09-30T19:32:09.108Z,101574.86
2017-09-30T19:34:11.657Z,101581.61
2017-09-30T19:36:14.099Z,101577.56
2017-09-30T19:38:16.560Z,101591.48
2017-09-30T19:40:19.013Z,101587.62
2017-09-30T19:42:21.460Z,101588.28
2017-09-30T19:44:23.891Z,101587.89
2017-09-30T19:46:26.381Z,101587.02
2017-09-30T19:48:28.818Z,101587.28
2017-09-30T19:50:31.305Z,101591.98
2017-09-30T19:52:33.778Z,101599.58
2017-09-30T19:54:36.243Z,101600.70
2017-09-30T19:56:38.698Z,101592.48
2017-09-30T19:58:41.274Z,101595.03
2017-09-30T20:00:43.720Z,101598.42
2017-09-30T20:02:46.163Z,101594.22
2017-09-30T20:04:48.629Z,101600.78
2017-09-30T20:06:51.075Z,101598.58
2017-09-30T20:08:53.520Z,101599.77
2017-09-30T20:10:56.001Z,101597.73
2017-09-30T20:12:58.481Z,101604.91
2017-09-30T20:15:00.925Z,101603.63
2017-09-30T20:17:03.382Z,101601.97
2017-09-30T20:19:05.819Z,101602.44
2017-09-30T20:21:08.259Z,101601.09
2017-09-30T20:23:10.741Z,101598.58
2017-09-30T20:25:13.181Z,101599.42
2017-09-30T20:27:15.623Z,101597.66
2017-09-30T20:29:18.090Z,101597.92
2017-09-30T20:31:20.619Z,101597.58
2017-09-30T20:33:23.102Z,101601.55
2017-09-30T20:35:25.839Z,101601.36
2017-09-30T20:37:28.297Z,101601.12
2017-09-30T20:39:30.780Z,101597.34
2017-09-30T20:41:33.244Z,101600.43
2017-09-30T20:43:35.778Z,101600.94
2017-09-30T20:45:38.224Z,101598.42
2017-09-30T20:47:40.705Z,101601.47
2017-09-30T20:49:43.165Z,101601.39
2017-09-30T20:51:45.624Z,101593.80
2017-09-30T20:53:48.084Z,101596.49
2017-09-30T20:55:50.564Z,101599.16
2017-09-30T20:57:53.021Z,101601.62
2017-09-30T20:59:55.518Z,101600.28
2017-09-30T21:01:57.977Z,101604.06
2017-09-30T21:04:00.421Z,101601.86
2017-09-30T21:06:02.881Z,101597.39
2017-09-30T21:08:05.324Z,101600.86
2017-09-30T21:10:07.852Z,101605.33
2017-09-30T21:12:10.341Z,101607.69
2017-09-30T21:14:12.788Z,101601.52
2017-09-30T21:16:15.229Z,101598.31
2017-09-30T21:18:17.732Z,101601.12
2017-09-30T21:20:20.200Z,101600.78
2017-09-30T21:22:22.644Z,101602.13
2017-09-30T21:24:25.184Z,101600.09
2017-09-30T21:26:27.620Z,101602.39
2017-09-30T21:28:30.087Z,101602.20
2017-09-30T21:30:32.583Z,101603.63
2017-09-30T21:32:35.026Z,101598.31
2017-09-30T21:34:37.468Z,101600.24
2017-09-30T21:36:40.210Z,101601.28
2017-09-30T21:38:42.648Z,101608.10
2017-09-30T21:40:45.113Z,101608.95
2017-09-30T21:42:47.579Z,101606.84
2017-09-30T21:44:50.055Z,101610.30
2017-09-30T21:46:52.511Z,101611.75
2017-09-30T21:48:55.049Z,101609.13
2017-09-30T21:50:57.552Z,101612.18
2017-09-30T21:52:59.986Z,101609.71
2017-09-30T21:55:02.483Z,101606.02
2017-09-30T21:57:04.932Z,101607.79
2017-09-30T21:59:07.445Z,101608.20
2017-09-30T22:01:10.013Z,101604.42
2017-09-30T22:03:12.452Z,101607.20
2017-09-30T22:05:14.898Z,101605.09
2017-09-30T22:07:17.421Z,101601.03
2017-09-30T22:09:19.851Z,101605.09
2017-09-30T22:11:22.295Z,101609.83
2017-09-30T22:13:24.768Z,101607.78
2017-09-30T22:15:27.204Z,101603.05
2017-09-30T22:17:29.676Z,101606.09
2017-09-30T22:19:32.150Z,101609.64
2017-09-30T22:21:34.584Z,101610.74
2017-09-30T22:23:37.036Z,101608.81
2017-09-30T22:25:39.498Z,101605.92
2017-09-30T22:27:41.930Z,101609.20
2017-09-30T22:29:44.370Z,101607.28
2017-09-30T22:31:46.837Z,101605.42
2017-09-30T22:33:49.273Z,101608.05
2017-09-30T22:35:51.715Z,101612.17
2017-09-30T22:37:54.468Z,101613.79
2017-09-30T22:39:56.913Z,101616.30
2017-09-30T22:41:59.420Z,101618.15
2017-09-30T22:44:01.876Z,101615.14
2017-09-30T22:46:04.352Z,101616.06
2017-09-30T22:48:06.782Z,101617.14
2017-09-30T22:50:09.300Z,101622.56
2017-09-30T22:52:11.737Z,101623.88
2017-09-30T22:54:14.176Z,101625.92
2017-09-30T22:56:16.640Z,101625.42
2017-09-30T22:58:19.081Z,101627.85
2017-09-30T23:00:21.516Z,101630.56
2017-09-30T23:02:24.034Z,101630.48
2017-09-30T23:04:26.531Z,101631.41
2017-09-30T23:06:28.960Z,101635.45
2017-09-30T23:08:31.417Z,101631.56
2017-09-30T23:10:33.869Z,101631.22
2017-09-30T23:12:36.324Z,101625.50
2017-09-30T23:14:39.036Z,101630.64
2017-09-30T23:16:41.512Z,101631.06